Time;durP1;ratioP1;P1;durP2;ratioP2;P2;SDS_P1;SDS_P2;PMS_P1;PMS_P2;Temp;Humidity;BMP_temperature;BMP_pressure;BME280_temperature;BME280_humidity;BME280_pressure;Samples;Min_cycle;Max_cycle;Signal;HPM_P1;HPM_P2
2024/04/06 00:04:17;;;;;;;44.13;27.40;;;;;;;;;;12976671;22;20424;-83
2024/04/06 00:09:19;;;;;;;39.58;26.38;;;;;;;;;;12976925;22;20452;-82
2024/04/06 00:14:23;;;;;;;47.30;27.17;;;;;;;;;;12999917;22;20695;-82
2024/04/06 00:19:25;;;;;;;42.63;27.80;;;;;;;;;;12978334;22;20363;-82
2024/04/06 00:24:28;;;;;;;42.15;27.52;;;;;;;;;;12979671;22;20366;-81
2024/04/06 00:29:32;;;;;;;41.38;26.05;;;;;;;;;;12978452;22;20703;-82
2024/04/06 00:34:34;;;;;;;41.42;26.55;;;;;;;;;;12977580;22;20976;-82
2024/04/06 00:39:37;;;;;;;41.75;26.80;;;;;;;;;;12977775;22;20750;-84
2024/04/06 00:44:41;;;;;;;44.28;26.50;;;;;;;;;;12977473;22;20363;-82
2024/04/06 00:49:44;;;;;;;41.87;26.27;;;;;;;;;;12978071;22;20461;-82
2024/04/06 00:54:46;;;;;;;42.70;27.23;;;;;;;;;;12977765;22;20456;-82
2024/04/06 00:59:50;;;;;;;43.53;26.97;;;;;;;;;;12977191;22;20389;-82
2024/04/06 01:04:53;;;;;;;44.25;25.67;;;;;;;;;;12977986;22;20424;-81
2024/04/06 01:09:55;;;;;;;40.40;24.17;;;;;;;;;;12977248;22;20382;-82
2024/04/06 01:14:59;;;;;;;38.75;24.63;;;;;;;;;;12977066;22;20370;-82
2024/04/06 01:20:02;;;;;;;37.47;24.27;;;;;;;;;;12978036;22;20459;-82
2024/04/06 01:25:06;;;;;;;36.53;24.20;;;;;;;;;;12993738;22;20742;-83
2024/04/06 01:30:10;;;;;;;40.47;24.53;;;;;;;;;;12949805;22;20439;-82
2024/04/06 01:35:12;;;;;;;37.78;23.45;;;;;;;;;;12978052;22;20390;-82
2024/04/06 01:40:16;;;;;;;37.85;23.90;;;;;;;;;;12950613;22;20359;-82
2024/04/06 01:45:19;;;;;;;38.70;24.20;;;;;;;;;;12975467;22;20363;-82
2024/04/06 01:50:22;;;;;;;36.33;23.73;;;;;;;;;;12977139;22;20885;-82
2024/04/06 01:55:26;;;;;;;37.70;24.08;;;;;;;;;;12977204;22;20648;-82
2024/04/06 02:00:28;;;;;;;36.90;22.93;;;;;;;;;;12976709;22;20420;-82
2024/04/06 02:05:31;;;;;;;38.47;23.43;;;;;;;;;;12977901;22;20362;-82
2024/04/06 02:10:35;;;;;;;35.77;23.47;;;;;;;;;;12976726;22;20409;-82
2024/04/06 02:15:39;;;;;;;36.35;22.98;;;;;;;;;;12975240;22;20850;-82
2024/04/06 02:20:41;;;;;;;36.67;24.30;;;;;;;;;;12971398;22;20374;-82
2024/04/06 02:25:46;;;;;;;39.57;24.17;;;;;;;;;;12973347;22;20902;-81
2024/04/06 02:30:48;;;;;;;37.35;23.70;;;;;;;;;;12974188;22;20379;-81
2024/04/06 02:35:51;;;;;;;34.33;22.73;;;;;;;;;;12975339;22;20366;-81
2024/04/06 02:40:55;;;;;;;33.88;22.40;;;;;;;;;;12975895;22;20890;-82
2024/04/06 02:45:57;;;;;;;34.70;22.53;;;;;;;;;;12979641;22;20370;-81
2024/04/06 02:51:00;;;;;;;32.97;21.77;;;;;;;;;;12980437;22;20417;-82
2024/04/06 02:56:04;;;;;;;32.75;21.42;;;;;;;;;;12980351;22;20367;-82
2024/04/06 03:01:06;;;;;;;33.10;20.73;;;;;;;;;;12980299;22;20358;-81
2024/04/06 03:06:09;;;;;;;37.17;22.10;;;;;;;;;;12979897;22;20424;-82
2024/04/06 03:11:13;;;;;;;35.72;23.20;;;;;;;;;;12979132;22;20386;-81
2024/04/06 03:16:15;;;;;;;34.47;22.45;;;;;;;;;;12979201;22;20367;-82
2024/04/06 03:21:18;;;;;;;37.38;23.90;;;;;;;;;;12980594;22;20366;-80
2024/04/06 03:26:21;;;;;;;37.72;24.33;;;;;;;;;;12979715;22;20722;-82
2024/04/06 03:31:24;;;;;;;37.28;24.75;;;;;;;;;;12980228;22;20414;-81
2024/04/06 03:36:26;;;;;;;35.85;22.77;;;;;;;;;;12979253;22;20367;-82
2024/04/06 03:41:30;;;;;;;36.60;23.92;;;;;;;;;;12978435;22;20363;-82
2024/04/06 03:46:33;;;;;;;35.53;23.23;;;;;;;;;;12979282;22;20428;-82
2024/04/06 03:51:35;;;;;;;36.40;22.58;;;;;;;;;;12978684;22;20866;-82
2024/04/06 03:56:39;;;;;;;32.17;21.83;;;;;;;;;;12977585;22;20370;-82
2024/04/06 04:01:41;;;;;;;37.20;22.97;;;;;;;;;;12975162;22;20370;-82
2024/04/06 04:06:44;;;;;;;37.27;21.70;;;;;;;;;;12978781;22;20366;-82
2024/04/06 04:11:48;;;;;;;31.23;21.58;;;;;;;;;;12977786;22;20383;-81
2024/04/06 04:16:50;;;;;;;35.63;21.77;;;;;;;;;;12978636;22;20363;-82
2024/04/06 04:21:53;;;;;;;32.47;22.27;;;;;;;;;;12974488;22;20420;-81
2024/04/06 04:26:56;;;;;;;33.20;20.48;;;;;;;;;;12974063;22;20363;-82
2024/04/06 04:31:59;;;;;;;30.53;20.13;;;;;;;;;;12977309;22;20758;-82
2024/04/06 04:37:03;;;;;;;35.80;21.30;;;;;;;;;;12978098;22;20370;-82
2024/04/06 04:42:07;;;;;;;35.58;20.52;;;;;;;;;;12978603;22;20359;-82
2024/04/06 04:47:10;;;;;;;36.20;22.27;;;;;;;;;;12977741;22;20382;-81
2024/04/06 04:52:12;;;;;;;38.42;21.70;;;;;;;;;;12975047;22;20432;-82
2024/04/06 04:57:16;;;;;;;36.90;21.75;;;;;;;;;;12978205;22;20911;-83
2024/04/06 05:02:18;;;;;;;32.15;20.85;;;;;;;;;;12978369;22;20413;-83
2024/04/06 05:07:22;;;;;;;33.20;21.98;;;;;;;;;;12977791;22;20362;-81
2024/04/06 05:12:26;;;;;;;34.33;20.75;;;;;;;;;;12975645;22;20383;-82
2024/04/06 05:17:28;;;;;;;34.60;21.92;;;;;;;;;;12973051;22;20727;-81
2024/04/06 05:22:31;;;;;;;37.03;22.30;;;;;;;;;;12976355;22;20358;-82
2024/04/06 05:27:35;;;;;;;31.67;20.02;;;;;;;;;;12949897;22;20416;-82
2024/04/06 05:32:37;;;;;;;32.03;20.90;;;;;;;;;;12976625;22;20436;-82
2024/04/06 05:37:39;;;;;;;34.03;21.60;;;;;;;;;;12976713;22;20416;-83
2024/04/06 05:42:43;;;;;;;36.00;22.58;;;;;;;;;;12975662;22;20401;-82
2024/04/06 05:47:46;;;;;;;35.30;22.13;;;;;;;;;;12975390;22;20393;-83
2024/04/06 05:52:48;;;;;;;34.20;21.80;;;;;;;;;;12972854;22;20429;-85
2024/04/06 05:57:52;;;;;;;33.08;21.27;;;;;;;;;;12973695;22;20385;-85
2024/04/06 06:02:56;;;;;;;35.08;21.33;;;;;;;;;;12975174;22;20366;-84
2024/04/06 06:07:58;;;;;;;30.90;19.33;;;;;;;;;;12976587;22;20371;-85
2024/04/06 06:13:03;;;;;;;32.92;20.42;;;;;;;;;;12976005;22;20443;-86
2024/04/06 06:18:06;;;;;;;31.10;19.90;;;;;;;;;;12979869;22;20378;-86
2024/04/06 06:23:08;;;;;;;33.33;19.58;;;;;;;;;;12978350;22;20909;-86
2024/04/06 06:28:12;;;;;;;30.75;19.08;;;;;;;;;;12978353;22;20424;-86
2024/04/06 06:33:15;;;;;;;29.52;18.77;;;;;;;;;;12978574;22;20378;-86
2024/04/06 06:38:18;;;;;;;30.27;18.70;;;;;;;;;;12977867;22;21013;-87
2024/04/06 06:43:21;;;;;;;27.30;17.10;;;;;;;;;;12971423;22;20404;-84
2024/04/06 06:48:24;;;;;;;27.92;16.25;;;;;;;;;;12975012;22;20358;-85
2024/04/06 06:53:26;;;;;;;23.83;15.35;;;;;;;;;;12974684;22;20471;-86
2024/04/06 06:58:31;;;;;;;25.03;14.83;;;;;;;;;;12973330;22;20420;-86
2024/04/06 07:03:33;;;;;;;22.97;15.27;;;;;;;;;;12972973;22;20834;-85
2024/04/06 07:08:36;;;;;;;28.23;15.10;;;;;;;;;;12975039;22;20926;-86
2024/04/06 07:13:40;;;;;;;23.02;14.10;;;;;;;;;;12992513;22;20753;-84
2024/04/06 07:18:43;;;;;;;26.03;14.67;;;;;;;;;;12975950;22;20378;-84
2024/04/06 07:41:40;;;;;;;24.23;14.67;;;;;;;;;;13006976;22;20373;-82
2024/04/06 07:46:43;;;;;;;23.05;14.05;;;;;;;;;;13040333;22;20357;-81
2024/04/06 07:51:45;;;;;;;26.73;14.37;;;;;;;;;;13040078;22;20477;-82
2024/04/06 07:56:49;;;;;;;25.55;14.45;;;;;;;;;;13040171;22;20418;-79
2024/04/06 08:01:51;;;;;;;24.37;15.70;;;;;;;;;;13038954;22;20365;-82
2024/04/06 08:06:55;;;;;;;25.08;14.82;;;;;;;;;;13041557;22;20365;-81
2024/04/06 08:11:59;;;;;;;24.90;14.53;;;;;;;;;;13064556;22;20411;-85
2024/04/06 08:17:02;;;;;;;21.35;14.70;;;;;;;;;;13035675;22;20422;-81
2024/04/06 08:22:04;;;;;;;22.20;14.45;;;;;;;;;;13040136;22;20410;-81
2024/04/06 08:27:08;;;;;;;26.00;15.47;;;;;;;;;;13059094;22;21101;-81
2024/04/06 08:32:11;;;;;;;23.90;15.40;;;;;;;;;;13037283;22;20381;-83
2024/04/06 08:37:13;;;;;;;23.80;13.90;;;;;;;;;;13040333;22;20689;-83
2024/04/06 08:42:19;;;;;;;30.65;15.65;;;;;;;;;;13039295;22;20368;-83
2024/04/06 08:47:21;;;;;;;22.65;14.50;;;;;;;;;;13040202;22;20369;-83
2024/04/06 08:52:24;;;;;;;23.70;13.85;;;;;;;;;;13040546;22;20434;-83
2024/04/06 08:57:28;;;;;;;23.80;14.00;;;;;;;;;;13040495;22;20364;-82
2024/04/06 09:02:31;;;;;;;17.70;13.52;;;;;;;;;;13036155;22;20430;-84
2024/04/06 09:07:34;;;;;;;19.95;13.38;;;;;;;;;;13040476;22;20701;-83
2024/04/06 09:12:38;;;;;;;21.02;13.70;;;;;;;;;;13036093;22;20380;-83
2024/04/06 09:17:40;;;;;;;18.20;13.40;;;;;;;;;;13037400;22;20437;-83
2024/04/06 09:22:44;;;;;;;21.97;14.37;;;;;;;;;;13057345;22;20647;-85
2024/04/06 09:27:48;;;;;;;21.77;13.27;;;;;;;;;;13038243;22;20398;-85
2024/04/06 09:32:54;;;;;;;21.10;14.03;;;;;;;;;;13038383;22;20450;-84
2024/04/06 09:37:56;;;;;;;19.77;13.73;;;;;;;;;;13038457;22;21054;-82
2024/04/06 09:43:01;;;;;;;19.43;12.20;;;;;;;;;;13036199;22;20460;-84
2024/04/06 09:48:04;;;;;;;20.60;12.63;;;;;;;;;;13037111;22;20407;-82
2024/04/06 09:53:06;;;;;;;17.92;11.63;;;;;;;;;;13036431;22;20384;-83
2024/04/06 09:58:10;;;;;;;23.67;12.40;;;;;;;;;;13036252;22;20365;-83
2024/04/06 10:03:15;;;;;;;17.10;11.77;;;;;;;;;;13035997;22;21387;-83
2024/04/06 10:08:19;;;;;;;20.48;13.13;;;;;;;;;;13036506;22;20365;-81
2024/04/06 10:13:23;;;;;;;19.33;11.75;;;;;;;;;;13057696;22;20368;-83
2024/04/06 10:18:26;;;;;;;17.50;11.43;;;;;;;;;;13039056;22;20361;-83
2024/04/06 10:23:38;;;;;;;18.15;12.32;;;;;;;;;;13039267;22;20365;-83
2024/04/06 10:28:43;;;;;;;17.20;11.00;;;;;;;;;;13038550;22;20365;-83
2024/04/06 10:33:46;;;;;;;18.35;10.90;;;;;;;;;;13038717;22;20381;-84
2024/04/06 10:38:48;;;;;;;15.50;10.65;;;;;;;;;;13037294;22;20361;-81
2024/04/06 10:43:52;;;;;;;17.10;10.77;;;;;;;;;;13037950;22;20736;-84
2024/04/06 10:48:55;;;;;;;15.05;10.05;;;;;;;;;;13036352;22;20360;-77
2024/04/06 10:53:58;;;;;;;12.68;9.38;;;;;;;;;;13037254;22;20388;-84
2024/04/06 10:59:04;;;;;;;14.13;9.93;;;;;;;;;;13037497;22;20906;-85
2024/04/06 11:04:07;;;;;;;14.40;9.15;;;;;;;;;;13033627;22;20808;-82
2024/04/06 11:09:10;;;;;;;12.98;8.30;;;;;;;;;;13034902;22;20405;-83
2024/04/06 11:14:14;;;;;;;13.82;10.20;;;;;;;;;;13034388;22;20930;-83
2024/04/06 11:19:17;;;;;;;13.88;9.10;;;;;;;;;;13032311;22;20372;-83
2024/04/06 11:24:20;;;;;;;16.13;9.20;;;;;;;;;;13043245;22;20376;-83
2024/04/06 11:29:23;;;;;;;14.80;9.13;;;;;;;;;;13033589;22;20832;-83
2024/04/06 11:34:26;;;;;;;13.07;9.37;;;;;;;;;;13033504;22;20678;-80
2024/04/06 11:39:29;;;;;;;12.05;8.43;;;;;;;;;;13033008;22;20365;-83
2024/04/06 11:44:32;;;;;;;11.13;7.78;;;;;;;;;;13041291;22;20377;-81
2024/04/06 11:49:35;;;;;;;18.40;10.13;;;;;;;;;;13028738;22;20385;-84
2024/04/06 11:54:37;;;;;;;11.27;8.00;;;;;;;;;;13030952;22;20384;-83
2024/04/06 11:59:41;;;;;;;11.88;8.75;;;;;;;;;;13055717;22;20365;-82
2024/04/06 12:04:44;;;;;;;12.23;8.43;;;;;;;;;;13036619;22;20399;-82
2024/04/06 12:09:46;;;;;;;12.95;9.10;;;;;;;;;;13038365;22;20373;-83
2024/04/06 12:14:51;;;;;;;12.77;8.75;;;;;;;;;;13035681;22;20381;-82
2024/04/06 12:19:53;;;;;;;12.50;8.25;;;;;;;;;;13038146;22;20463;-83
2024/04/06 12:24:56;;;;;;;10.90;8.73;;;;;;;;;;13038058;22;20988;-74
2024/04/06 12:29:59;;;;;;;14.18;8.93;;;;;;;;;;13036964;22;20365;-82
2024/04/06 12:35:03;;;;;;;14.23;8.50;;;;;;;;;;13039735;22;20389;-84
2024/04/06 12:40:07;;;;;;;10.18;7.25;;;;;;;;;;13042307;22;20415;-84
2024/04/06 12:45:10;;;;;;;12.13;7.78;;;;;;;;;;13039178;22;20836;-85
2024/04/06 12:50:13;;;;;;;9.95;6.78;;;;;;;;;;13041596;22;20361;-84
2024/04/06 12:55:15;;;;;;;9.83;7.90;;;;;;;;;;13042483;22;20452;-84
2024/04/06 13:00:20;;;;;;;13.10;7.90;;;;;;;;;;13043124;22;20361;-84
2024/04/06 13:05:22;;;;;;;12.77;8.23;;;;;;;;;;13064850;22;20658;-84
2024/04/06 13:10:25;;;;;;;12.27;7.80;;;;;;;;;;13043097;22;20448;-84
2024/04/06 13:15:29;;;;;;;10.75;6.97;;;;;;;;;;13042581;22;20871;-85
2024/04/06 13:20:33;;;;;;;12.10;7.63;;;;;;;;;;13042479;22;21160;-84
2024/04/06 13:25:36;;;;;;;10.55;7.65;;;;;;;;;;13041777;22;20418;-84
2024/04/06 13:30:40;;;;;;;10.48;7.32;;;;;;;;;;13041753;22;20361;-85
2024/04/06 13:35:43;;;;;;;10.60;8.05;;;;;;;;;;13042168;22;20458;-85
2024/04/06 13:40:45;;;;;;;11.43;8.30;;;;;;;;;;13041615;22;20367;-84
2024/04/06 13:45:49;;;;;;;14.93;8.00;;;;;;;;;;13042981;22;20666;-84
2024/04/06 13:50:54;;;;;;;8.77;7.60;;;;;;;;;;13043066;22;20369;-84
2024/04/06 13:55:57;;;;;;;11.70;7.68;;;;;;;;;;13040753;22;20381;-85
2024/04/06 14:01:01;;;;;;;13.80;8.15;;;;;;;;;;13041721;22;20422;-85
2024/04/06 14:06:04;;;;;;;13.13;7.63;;;;;;;;;;13040725;22;20361;-84
2024/04/06 14:11:07;;;;;;;14.65;9.10;;;;;;;;;;13041167;22;20365;-84
2024/04/06 14:16:12;;;;;;;13.18;9.07;;;;;;;;;;13042161;22;20852;-85
2024/04/06 14:21:14;;;;;;;13.38;8.98;;;;;;;;;;13063572;22;20357;-85
2024/04/06 14:26:17;;;;;;;14.30;9.00;;;;;;;;;;13041573;22;20365;-85
2024/04/06 14:31:20;;;;;;;14.35;8.73;;;;;;;;;;13041649;22;20465;-85
2024/04/06 14:36:23;;;;;;;14.90;9.88;;;;;;;;;;13041037;22;20697;-85
2024/04/06 14:41:25;;;;;;;12.57;9.57;;;;;;;;;;13047689;22;20368;-83
2024/04/06 14:46:29;;;;;;;15.63;9.98;;;;;;;;;;13048525;22;20669;-83
2024/04/06 14:51:32;;;;;;;16.15;10.25;;;;;;;;;;13048094;22;20368;-82
2024/04/06 14:56:34;;;;;;;12.70;9.30;;;;;;;;;;13048926;22;20372;-83
2024/04/06 15:01:38;;;;;;;13.67;9.80;;;;;;;;;;13048746;22;20426;-83
2024/04/06 15:06:40;;;;;;;15.03;10.43;;;;;;;;;;13048240;22;20364;-84
2024/04/06 15:11:42;;;;;;;13.77;9.35;;;;;;;;;;13047878;22;20361;-83
2024/04/06 15:16:47;;;;;;;13.10;9.88;;;;;;;;;;13048352;22;20412;-84
2024/04/06 15:21:49;;;;;;;14.43;10.37;;;;;;;;;;13047550;22;20450;-83
2024/04/06 15:26:52;;;;;;;13.50;10.32;;;;;;;;;;13047682;22;20951;-83
2024/04/06 15:31:55;;;;;;;12.95;9.60;;;;;;;;;;13047225;22;20426;-84
2024/04/06 15:36:59;;;;;;;14.57;8.95;;;;;;;;;;13047493;22;20886;-84
2024/04/06 15:42:01;;;;;;;13.43;10.18;;;;;;;;;;13046287;22;20438;-83
2024/04/06 15:47:08;;;;;;;13.13;9.40;;;;;;;;;;13047946;22;20454;-84
2024/04/06 15:52:11;;;;;;;13.40;9.52;;;;;;;;;;13044786;22;20365;-84
2024/04/06 15:57:13;;;;;;;15.68;10.30;;;;;;;;;;13044677;22;20369;-82
2024/04/06 16:02:17;;;;;;;11.35;8.65;;;;;;;;;;13043881;22;20395;-84
2024/04/06 16:07:20;;;;;;;12.65;10.02;;;;;;;;;;13044543;22;20758;-83
2024/04/06 16:12:22;;;;;;;12.50;10.15;;;;;;;;;;13044058;22;20478;-84
2024/04/06 16:17:26;;;;;;;13.65;10.05;;;;;;;;;;13044224;22;20365;-84
2024/04/06 16:22:29;;;;;;;10.40;8.82;;;;;;;;;;13043795;22;20418;-84
2024/04/06 16:27:31;;;;;;;15.80;10.67;;;;;;;;;;13044427;22;20377;-83
2024/04/06 16:32:35;;;;;;;14.25;9.88;;;;;;;;;;13043946;22;20406;-83
2024/04/06 16:37:37;;;;;;;14.90;9.50;;;;;;;;;;13042729;22;20391;-82
2024/04/06 16:42:40;;;;;;;14.13;9.63;;;;;;;;;;13042104;22;20361;-83
2024/04/06 16:47:44;;;;;;;13.43;10.38;;;;;;;;;;13043912;22;20430;-83
2024/04/06 16:52:47;;;;;;;16.20;11.55;;;;;;;;;;13043729;22;20481;-83
2024/04/06 16:57:50;;;;;;;14.40;9.93;;;;;;;;;;13042219;22;20365;-83
2024/04/06 17:02:54;;;;;;;13.13;9.77;;;;;;;;;;13042685;22;20442;-83
2024/04/06 17:07:56;;;;;;;15.20;10.68;;;;;;;;;;13043932;22;20532;-83
2024/04/06 17:12:59;;;;;;;14.43;9.63;;;;;;;;;;13043173;22;20990;-83
2024/04/06 17:18:04;;;;;;;15.60;9.85;;;;;;;;;;13042673;22;20422;-83
2024/04/06 17:23:12;;;;;;;24.13;13.67;;;;;;;;;;13041141;22;20377;-83
2024/04/06 17:28:15;;;;;;;19.85;14.10;;;;;;;;;;13042751;22;20365;-83
2024/04/06 17:33:20;;;;;;;21.15;15.35;;;;;;;;;;13042290;22;20442;-83
2024/04/06 17:38:23;;;;;;;22.03;15.20;;;;;;;;;;13042993;22;20667;-83
2024/04/06 17:43:27;;;;;;;29.57;17.90;;;;;;;;;;13042645;22;20361;-83
2024/04/06 17:48:31;;;;;;;21.15;16.80;;;;;;;;;;13042897;22;20361;-82
2024/04/06 17:53:33;;;;;;;26.38;17.75;;;;;;;;;;13064270;22;20898;-83
2024/04/06 17:58:36;;;;;;;30.92;20.77;;;;;;;;;;13042035;22;20368;-82
2024/04/06 18:03:40;;;;;;;35.92;24.08;;;;;;;;;;13064089;22;20356;-83
2024/04/06 18:08:42;;;;;;;34.38;20.90;;;;;;;;;;13056817;22;20900;-81
2024/04/06 18:13:45;;;;;;;35.67;23.17;;;;;;;;;;13038620;22;20407;-83
2024/04/06 18:18:49;;;;;;;37.73;24.60;;;;;;;;;;13034584;22;20411;-82
2024/04/06 18:23:52;;;;;;;35.25;23.58;;;;;;;;;;13036511;22;20398;-81
2024/04/06 18:28:54;;;;;;;35.92;22.92;;;;;;;;;;13033813;22;20364;-82
2024/04/06 18:33:58;;;;;;;35.50;23.23;;;;;;;;;;13036178;22;20918;-81
2024/04/06 18:39:01;;;;;;;39.17;23.92;;;;;;;;;;13038519;22;20442;-82
2024/04/06 18:44:03;;;;;;;39.55;25.98;;;;;;;;;;13031045;22;20423;-82
2024/04/06 18:49:07;;;;;;;46.30;28.42;;;;;;;;;;13026649;22;20510;-83
2024/04/06 18:54:09;;;;;;;48.97;29.70;;;;;;;;;;13028435;22;20446;-82
2024/04/06 18:59:12;;;;;;;44.97;26.73;;;;;;;;;;13028225;22;20376;-82
2024/04/06 19:04:16;;;;;;;36.65;23.85;;;;;;;;;;13027601;22;20410;-82
2024/04/06 19:09:18;;;;;;;29.75;20.42;;;;;;;;;;13030496;22;20443;-82
2024/04/06 19:14:21;;;;;;;30.30;19.83;;;;;;;;;;13028879;22;20385;-81
2024/04/06 19:19:24;;;;;;;29.60;19.05;;;;;;;;;;13031135;22;20398;-81
2024/04/06 19:24:27;;;;;;;29.17;18.33;;;;;;;;;;13030329;22;20427;-82
2024/04/06 19:29:30;;;;;;;27.75;19.65;;;;;;;;;;13032189;22;20381;-82
2024/04/06 19:34:34;;;;;;;28.75;19.70;;;;;;;;;;13033353;22;20446;-82
2024/04/06 19:39:36;;;;;;;29.55;19.55;;;;;;;;;;13031604;22;20410;-82
2024/04/06 19:44:40;;;;;;;27.40;18.65;;;;;;;;;;13030892;22;20449;-82
2024/04/06 19:49:45;;;;;;;29.80;19.53;;;;;;;;;;13033026;22;20380;-82
2024/04/06 19:54:48;;;;;;;28.63;18.42;;;;;;;;;;13034094;22;20376;-82
2024/04/06 19:59:50;;;;;;;29.70;19.77;;;;;;;;;;13033018;22;20373;-82
2024/04/06 20:04:54;;;;;;;30.00;19.92;;;;;;;;;;13031845;22;20373;-82
2024/04/06 20:09:56;;;;;;;26.67;19.02;;;;;;;;;;13029804;22;21010;-82
2024/04/06 20:14:59;;;;;;;25.83;19.42;;;;;;;;;;13029243;22;20458;-82
2024/04/06 20:20:04;;;;;;;28.33;19.30;;;;;;;;;;13032275;22;20937;-82
2024/04/06 20:30:27;;;;;;;31.53;20.43;;;;;;;;;;13036901;22;20957;-81
2024/04/06 20:35:30;;;;;;;32.28;20.80;;;;;;;;;;13032282;22;20454;-81
2024/04/06 20:40:33;;;;;;;33.15;20.58;;;;;;;;;;13032980;22;20381;-81
2024/04/06 20:45:36;;;;;;;28.05;20.30;;;;;;;;;;13031783;22;20380;-81
2024/04/06 20:50:40;;;;;;;31.75;21.65;;;;;;;;;;13032448;22;20372;-81
2024/04/06 20:55:42;;;;;;;30.90;21.65;;;;;;;;;;13032965;22;20458;-83
2024/04/06 21:00:46;;;;;;;35.70;20.80;;;;;;;;;;13032126;22;20357;-82
2024/04/06 21:05:50;;;;;;;32.35;21.35;;;;;;;;;;13038253;22;20353;-83
2024/04/06 21:10:52;;;;;;;30.90;20.13;;;;;;;;;;13040097;22;20470;-84
2024/04/06 21:15:55;;;;;;;29.70;20.38;;;;;;;;;;13039843;22;20446;-83
2024/04/06 21:20:59;;;;;;;29.75;20.25;;;;;;;;;;13042418;22;20422;-84
2024/04/06 21:26:01;;;;;;;29.67;20.23;;;;;;;;;;13040385;22;20829;-83
2024/04/06 21:31:04;;;;;;;33.77;22.20;;;;;;;;;;13043124;22;20376;-83
2024/04/06 21:36:08;;;;;;;31.37;21.60;;;;;;;;;;13042466;22;20388;-84
2024/04/06 21:41:11;;;;;;;33.20;22.27;;;;;;;;;;13015197;22;20909;-84
2024/04/06 21:46:13;;;;;;;33.75;22.35;;;;;;;;;;13042411;22;20443;-82
2024/04/06 21:51:18;;;;;;;35.53;23.77;;;;;;;;;;13042170;22;21099;-83
2024/04/06 21:56:21;;;;;;;34.60;24.20;;;;;;;;;;13040556;22;20438;-82
2024/04/06 22:01:24;;;;;;;36.88;25.98;;;;;;;;;;13042024;22;20368;-82
2024/04/06 22:06:28;;;;;;;41.75;27.58;;;;;;;;;;13041399;22;20902;-82
2024/04/06 22:11:31;;;;;;;42.93;28.90;;;;;;;;;;13039767;22;20369;-83
2024/04/06 22:16:33;;;;;;;45.30;29.27;;;;;;;;;;13041362;22;20388;-82
2024/04/06 22:21:37;;;;;;;39.75;25.98;;;;;;;;;;13040681;22;20369;-82
2024/04/06 22:26:40;;;;;;;40.08;26.98;;;;;;;;;;13040536;22;20365;-83
2024/04/06 22:31:42;;;;;;;36.15;25.88;;;;;;;;;;13040950;22;20365;-83
2024/04/06 22:36:47;;;;;;;35.92;25.13;;;;;;;;;;13040965;22;20430;-83
2024/04/06 22:41:49;;;;;;;38.53;26.02;;;;;;;;;;13040685;22;20357;-84
2024/04/06 22:46:52;;;;;;;39.05;26.45;;;;;;;;;;13040478;22;20369;-82
2024/04/06 22:51:56;;;;;;;35.72;26.05;;;;;;;;;;13041567;22;20410;-83
2024/04/06 22:56:59;;;;;;;36.20;25.77;;;;;;;;;;13038542;22;20430;-82
2024/04/06 23:02:01;;;;;;;35.85;25.35;;;;;;;;;;13044713;22;20364;-83
2024/04/06 23:07:05;;;;;;;36.03;26.50;;;;;;;;;;13045099;22;20872;-83
2024/04/06 23:12:08;;;;;;;37.70;26.47;;;;;;;;;;13043408;22;20898;-82
2024/04/06 23:17:11;;;;;;;39.25;26.08;;;;;;;;;;13066311;22;20426;-82
2024/04/06 23:22:15;;;;;;;38.97;27.00;;;;;;;;;;13066221;22;20813;-83
2024/04/06 23:27:17;;;;;;;37.83;26.38;;;;;;;;;;13044544;22;20387;-82
2024/04/06 23:32:20;;;;;;;43.42;26.83;;;;;;;;;;13043806;22;20431;-83
2024/04/06 23:37:24;;;;;;;42.38;27.27;;;;;;;;;;13044806;22;20474;-83
2024/04/06 23:42:28;;;;;;;39.20;27.10;;;;;;;;;;13044321;22;20420;-82
2024/04/06 23:47:31;;;;;;;39.97;26.98;;;;;;;;;;13044554;22;20418;-82
2024/04/06 23:52:34;;;;;;;40.65;26.15;;;;;;;;;;13043350;22;20422;-83
2024/04/06 23:57:37;;;;;;;42.67;27.70;;;;;;;;;;13044403;22;20442;-83
